sensor_id;sensor_type;location;lat;lon;timestamp;P1;durP1;ratioP1;P2;durP2;ratioP2
81619;SDS011;71028;53.410;6.710;2024-03-06T00:02:18;10.88;;;5.45;;
81619;SDS011;71028;53.410;6.710;2024-03-06T00:04:44;9.00;;;5.55;;
81619;SDS011;71028;53.410;6.710;2024-03-06T00:07:10;10.60;;;5.68;;
81619;SDS011;71028;53.410;6.710;2024-03-06T00:09:36;12.07;;;6.05;;
81619;SDS011;71028;53.410;6.710;2024-03-06T00:12:02;9.90;;;5.50;;
81619;SDS011;71028;53.410;6.710;2024-03-06T00:14:29;11.77;;;6.53;;
81619;SDS011;71028;53.410;6.710;2024-03-06T00:16:55;11.45;;;5.97;;
81619;SDS011;71028;53.410;6.710;2024-03-06T00:19:21;11.65;;;5.88;;
81619;SDS011;71028;53.410;6.710;2024-03-06T00:21:48;9.95;;;5.53;;
81619;SDS011;71028;53.410;6.710;2024-03-06T00:24:14;11.27;;;5.78;;
81619;SDS011;71028;53.410;6.710;2024-03-06T00:26:41;12.90;;;5.93;;
81619;SDS011;71028;53.410;6.710;2024-03-06T00:29:07;12.80;;;6.93;;
81619;SDS011;71028;53.410;6.710;2024-03-06T00:31:33;9.82;;;6.25;;
81619;SDS011;71028;53.410;6.710;2024-03-06T00:33:59;8.60;;;5.25;;
81619;SDS011;71028;53.410;6.710;2024-03-06T00:36:25;11.60;;;5.88;;
81619;SDS011;71028;53.410;6.710;2024-03-06T00:38:51;11.00;;;5.57;;
81619;SDS011;71028;53.410;6.710;2024-03-06T00:41:17;10.93;;;5.85;;
81619;SDS011;71028;53.410;6.710;2024-03-06T00:43:44;11.32;;;5.80;;
81619;SDS011;71028;53.410;6.710;2024-03-06T00:46:10;9.77;;;6.05;;
81619;SDS011;71028;53.410;6.710;2024-03-06T00:48:36;13.40;;;6.43;;
81619;SDS011;71028;53.410;6.710;2024-03-06T00:51:04;11.10;;;7.22;;
81619;SDS011;71028;53.410;6.710;2024-03-06T00:53:32;12.02;;;5.85;;
81619;SDS011;71028;53.410;6.710;2024-03-06T00:55:58;12.23;;;6.63;;
81619;SDS011;71028;53.410;6.710;2024-03-06T00:58:24;11.82;;;6.55;;
81619;SDS011;71028;53.410;6.710;2024-03-06T01:00:50;12.15;;;6.32;;
81619;SDS011;71028;53.410;6.710;2024-03-06T01:03:16;11.45;;;6.45;;
81619;SDS011;71028;53.410;6.710;2024-03-06T01:05:42;14.63;;;7.13;;
81619;SDS011;71028;53.410;6.710;2024-03-06T01:08:08;13.75;;;6.78;;
81619;SDS011;71028;53.410;6.710;2024-03-06T01:10:34;10.45;;;5.72;;
81619;SDS011;71028;53.410;6.710;2024-03-06T01:13:00;10.65;;;6.45;;
81619;SDS011;71028;53.410;6.710;2024-03-06T01:15:26;15.43;;;6.32;;
81619;SDS011;71028;53.410;6.710;2024-03-06T01:17:52;10.73;;;6.20;;
81619;SDS011;71028;53.410;6.710;2024-03-06T01:20:18;12.15;;;5.75;;
81619;SDS011;71028;53.410;6.710;2024-03-06T01:22:44;11.77;;;7.15;;
81619;SDS011;71028;53.410;6.710;2024-03-06T01:25:11;12.80;;;6.32;;
81619;SDS011;71028;53.410;6.710;2024-03-06T01:27:37;10.25;;;6.45;;
81619;SDS011;71028;53.410;6.710;2024-03-06T01:30:03;14.40;;;6.15;;
81619;SDS011;71028;53.410;6.710;2024-03-06T01:32:30;11.88;;;6.93;;
81619;SDS011;71028;53.410;6.710;2024-03-06T01:34:56;13.00;;;6.35;;
81619;SDS011;71028;53.410;6.710;2024-03-06T01:37:22;12.68;;;7.35;;
81619;SDS011;71028;53.410;6.710;2024-03-06T01:39:48;13.45;;;6.18;;
81619;SDS011;71028;53.410;6.710;2024-03-06T01:42:16;17.90;;;7.13;;
81619;SDS011;71028;53.410;6.710;2024-03-06T01:44:43;13.02;;;6.20;;
81619;SDS011;71028;53.410;6.710;2024-03-06T01:47:09;11.18;;;6.45;;
81619;SDS011;71028;53.410;6.710;2024-03-06T01:49:35;15.27;;;7.22;;
81619;SDS011;71028;53.410;6.710;2024-03-06T01:52:01;13.75;;;6.65;;
81619;SDS011;71028;53.410;6.710;2024-03-06T01:54:27;13.88;;;6.60;;
81619;SDS011;71028;53.410;6.710;2024-03-06T01:56:53;10.50;;;6.65;;
81619;SDS011;71028;53.410;6.710;2024-03-06T01:59:21;12.40;;;7.03;;
81619;SDS011;71028;53.410;6.710;2024-03-06T02:01:50;12.00;;;7.18;;
81619;SDS011;71028;53.410;6.710;2024-03-06T02:04:18;14.10;;;6.35;;
81619;SDS011;71028;53.410;6.710;2024-03-06T02:06:45;11.57;;;6.50;;
81619;SDS011;71028;53.410;6.710;2024-03-06T02:09:11;12.48;;;6.80;;
81619;SDS011;71028;53.410;6.710;2024-03-06T02:11:39;14.13;;;7.65;;
81619;SDS011;71028;53.410;6.710;2024-03-06T02:14:05;13.68;;;7.10;;
81619;SDS011;71028;53.410;6.710;2024-03-06T02:16:34;14.38;;;7.53;;
81619;SDS011;71028;53.410;6.710;2024-03-06T02:19:00;11.95;;;6.38;;
81619;SDS011;71028;53.410;6.710;2024-03-06T02:21:26;16.10;;;7.93;;
81619;SDS011;71028;53.410;6.710;2024-03-06T02:23:52;12.45;;;7.50;;
81619;SDS011;71028;53.410;6.710;2024-03-06T02:26:19;14.20;;;6.80;;
81619;SDS011;71028;53.410;6.710;2024-03-06T02:28:52;15.43;;;7.60;;
81619;SDS011;71028;53.410;6.710;2024-03-06T02:31:19;14.13;;;8.13;;
81619;SDS011;71028;53.410;6.710;2024-03-06T02:33:46;14.32;;;8.30;;
81619;SDS011;71028;53.410;6.710;2024-03-06T02:36:22;16.58;;;7.57;;
81619;SDS011;71028;53.410;6.710;2024-03-06T02:38:48;14.95;;;7.13;;
81619;SDS011;71028;53.410;6.710;2024-03-06T02:41:14;12.60;;;6.68;;
81619;SDS011;71028;53.410;6.710;2024-03-06T02:43:40;15.07;;;7.05;;
81619;SDS011;71028;53.410;6.710;2024-03-06T02:46:08;13.13;;;7.25;;
81619;SDS011;71028;53.410;6.710;2024-03-06T02:48:34;14.25;;;8.25;;
81619;SDS011;71028;53.410;6.710;2024-03-06T02:51:00;13.27;;;8.05;;
81619;SDS011;71028;53.410;6.710;2024-03-06T02:53:26;11.95;;;6.88;;
81619;SDS011;71028;53.410;6.710;2024-03-06T02:55:52;13.75;;;7.75;;
81619;SDS011;71028;53.410;6.710;2024-03-06T02:58:18;15.27;;;7.25;;
81619;SDS011;71028;53.410;6.710;2024-03-06T03:00:44;13.30;;;7.30;;
81619;SDS011;71028;53.410;6.710;2024-03-06T03:03:10;14.02;;;6.80;;
81619;SDS011;71028;53.410;6.710;2024-03-06T03:05:37;14.68;;;8.02;;
81619;SDS011;71028;53.410;6.710;2024-03-06T03:08:04;14.43;;;7.50;;
81619;SDS011;71028;53.410;6.710;2024-03-06T03:10:30;14.57;;;8.07;;
81619;SDS011;71028;53.410;6.710;2024-03-06T03:12:56;14.20;;;7.55;;
81619;SDS011;71028;53.410;6.710;2024-03-06T03:15:22;13.70;;;7.45;;
81619;SDS011;71028;53.410;6.710;2024-03-06T03:17:48;16.60;;;7.40;;
81619;SDS011;71028;53.410;6.710;2024-03-06T03:20:14;15.82;;;7.47;;
81619;SDS011;71028;53.410;6.710;2024-03-06T03:22:42;13.13;;;7.45;;
81619;SDS011;71028;53.410;6.710;2024-03-06T03:25:09;14.20;;;7.35;;
81619;SDS011;71028;53.410;6.710;2024-03-06T03:27:36;13.10;;;7.70;;
81619;SDS011;71028;53.410;6.710;2024-03-06T03:30:03;15.10;;;7.47;;
81619;SDS011;71028;53.410;6.710;2024-03-06T03:32:30;14.32;;;7.57;;
81619;SDS011;71028;53.410;6.710;2024-03-06T03:34:56;14.57;;;7.72;;
81619;SDS011;71028;53.410;6.710;2024-03-06T03:37:22;16.17;;;8.15;;
81619;SDS011;71028;53.410;6.710;2024-03-06T03:39:48;14.55;;;8.02;;
81619;SDS011;71028;53.410;6.710;2024-03-06T03:42:14;12.27;;;7.75;;
81619;SDS011;71028;53.410;6.710;2024-03-06T03:44:40;14.27;;;7.80;;
81619;SDS011;71028;53.410;6.710;2024-03-06T03:47:07;16.05;;;7.90;;
81619;SDS011;71028;53.410;6.710;2024-03-06T03:49:32;14.68;;;8.50;;
81619;SDS011;71028;53.410;6.710;2024-03-06T03:51:58;14.45;;;8.05;;
81619;SDS011;71028;53.410;6.710;2024-03-06T03:54:24;17.20;;;8.15;;
81619;SDS011;71028;53.410;6.710;2024-03-06T03:56:50;18.38;;;8.60;;
81619;SDS011;71028;53.410;6.710;2024-03-06T03:59:16;15.80;;;7.85;;
81619;SDS011;71028;53.410;6.710;2024-03-06T04:01:44;17.48;;;8.07;;
81619;SDS011;71028;53.410;6.710;2024-03-06T04:04:11;13.98;;;8.35;;
81619;SDS011;71028;53.410;6.710;2024-03-06T04:06:37;17.75;;;7.68;;
81619;SDS011;71028;53.410;6.710;2024-03-06T04:09:03;14.65;;;8.23;;
81619;SDS011;71028;53.410;6.710;2024-03-06T04:11:30;17.05;;;9.45;;
81619;SDS011;71028;53.410;6.710;2024-03-06T04:13:59;15.38;;;8.27;;
81619;SDS011;71028;53.410;6.710;2024-03-06T04:16:25;13.75;;;7.25;;
81619;SDS011;71028;53.410;6.710;2024-03-06T04:18:51;14.60;;;8.43;;
81619;SDS011;71028;53.410;6.710;2024-03-06T04:21:17;15.98;;;8.38;;
81619;SDS011;71028;53.410;6.710;2024-03-06T04:23:43;16.15;;;8.02;;
81619;SDS011;71028;53.410;6.710;2024-03-06T04:26:09;17.95;;;8.70;;
81619;SDS011;71028;53.410;6.710;2024-03-06T04:28:35;15.95;;;8.52;;
81619;SDS011;71028;53.410;6.710;2024-03-06T04:31:01;13.30;;;7.47;;
81619;SDS011;71028;53.410;6.710;2024-03-06T04:33:28;17.42;;;9.00;;
81619;SDS011;71028;53.410;6.710;2024-03-06T04:35:53;14.73;;;7.65;;
81619;SDS011;71028;53.410;6.710;2024-03-06T04:38:19;16.90;;;7.47;;
81619;SDS011;71028;53.410;6.710;2024-03-06T04:40:46;14.32;;;7.50;;
81619;SDS011;71028;53.410;6.710;2024-03-06T04:43:11;12.88;;;7.30;;
81619;SDS011;71028;53.410;6.710;2024-03-06T04:45:37;14.57;;;7.88;;
81619;SDS011;71028;53.410;6.710;2024-03-06T04:48:04;14.63;;;8.70;;
81619;SDS011;71028;53.410;6.710;2024-03-06T04:50:30;14.57;;;7.72;;
81619;SDS011;71028;53.410;6.710;2024-03-06T04:52:57;15.43;;;7.72;;
81619;SDS011;71028;53.410;6.710;2024-03-06T04:55:23;19.95;;;8.57;;
81619;SDS011;71028;53.410;6.710;2024-03-06T04:57:50;18.05;;;8.38;;
81619;SDS011;71028;53.410;6.710;2024-03-06T05:00:16;11.85;;;6.60;;
81619;SDS011;71028;53.410;6.710;2024-03-06T05:02:43;14.32;;;8.18;;
81619;SDS011;71028;53.410;6.710;2024-03-06T05:05:09;13.63;;;7.10;;
81619;SDS011;71028;53.410;6.710;2024-03-06T05:07:35;13.90;;;7.03;;
81619;SDS011;71028;53.410;6.710;2024-03-06T05:10:01;13.77;;;8.32;;
81619;SDS011;71028;53.410;6.710;2024-03-06T05:12:28;18.65;;;7.88;;
81619;SDS011;71028;53.410;6.710;2024-03-06T05:14:54;13.43;;;7.82;;
81619;SDS011;71028;53.410;6.710;2024-03-06T05:17:20;14.63;;;7.78;;
81619;SDS011;71028;53.410;6.710;2024-03-06T05:19:47;18.50;;;7.53;;
81619;SDS011;71028;53.410;6.710;2024-03-06T05:22:15;18.02;;;9.07;;
81619;SDS011;71028;53.410;6.710;2024-03-06T05:24:41;12.85;;;7.35;;
81619;SDS011;71028;53.410;6.710;2024-03-06T05:27:08;14.15;;;7.40;;
81619;SDS011;71028;53.410;6.710;2024-03-06T05:29:42;20.48;;;9.65;;
81619;SDS011;71028;53.410;6.710;2024-03-06T05:32:09;19.40;;;8.32;;
81619;SDS011;71028;53.410;6.710;2024-03-06T05:34:35;14.88;;;7.97;;
81619;SDS011;71028;53.410;6.710;2024-03-06T05:37:01;18.50;;;9.65;;
81619;SDS011;71028;53.410;6.710;2024-03-06T05:39:29;17.77;;;8.85;;
81619;SDS011;71028;53.410;6.710;2024-03-06T05:41:55;17.25;;;8.40;;
81619;SDS011;71028;53.410;6.710;2024-03-06T05:44:21;15.25;;;7.80;;
81619;SDS011;71028;53.410;6.710;2024-03-06T05:46:47;16.77;;;8.15;;
81619;SDS011;71028;53.410;6.710;2024-03-06T05:49:13;15.15;;;7.82;;
81619;SDS011;71028;53.410;6.710;2024-03-06T05:51:39;15.63;;;7.53;;
81619;SDS011;71028;53.410;6.710;2024-03-06T05:54:05;15.60;;;8.02;;
81619;SDS011;71028;53.410;6.710;2024-03-06T05:56:33;14.48;;;8.07;;
81619;SDS011;71028;53.410;6.710;2024-03-06T05:58:59;14.52;;;7.30;;
81619;SDS011;71028;53.410;6.710;2024-03-06T06:01:29;16.83;;;7.63;;
81619;SDS011;71028;53.410;6.710;2024-03-06T06:03:55;14.88;;;7.07;;
81619;SDS011;71028;53.410;6.710;2024-03-06T06:06:21;12.57;;;7.30;;
81619;SDS011;71028;53.410;6.710;2024-03-06T06:08:47;14.77;;;6.90;;
81619;SDS011;71028;53.410;6.710;2024-03-06T06:11:13;14.93;;;7.78;;
81619;SDS011;71028;53.410;6.710;2024-03-06T06:13:39;12.60;;;6.72;;
81619;SDS011;71028;53.410;6.710;2024-03-06T06:16:06;16.55;;;8.15;;
81619;SDS011;71028;53.410;6.710;2024-03-06T06:18:32;16.60;;;7.65;;
81619;SDS011;71028;53.410;6.710;2024-03-06T06:20:58;12.63;;;7.15;;
81619;SDS011;71028;53.410;6.710;2024-03-06T06:23:24;14.50;;;7.18;;
81619;SDS011;71028;53.410;6.710;2024-03-06T06:25:50;12.82;;;7.90;;
81619;SDS011;71028;53.410;6.710;2024-03-06T06:28:17;13.52;;;7.70;;
81619;SDS011;71028;53.410;6.710;2024-03-06T06:30:43;13.90;;;6.50;;
81619;SDS011;71028;53.410;6.710;2024-03-06T06:33:09;15.00;;;7.22;;
81619;SDS011;71028;53.410;6.710;2024-03-06T06:35:35;11.57;;;6.82;;
81619;SDS011;71028;53.410;6.710;2024-03-06T06:38:01;13.43;;;6.88;;
81619;SDS011;71028;53.410;6.710;2024-03-06T06:40:27;14.52;;;6.97;;
81619;SDS011;71028;53.410;6.710;2024-03-06T06:42:53;13.05;;;8.15;;
81619;SDS011;71028;53.410;6.710;2024-03-06T06:45:20;14.18;;;7.97;;
81619;SDS011;71028;53.410;6.710;2024-03-06T06:47:47;13.68;;;7.15;;
81619;SDS011;71028;53.410;6.710;2024-03-06T06:50:13;14.70;;;7.78;;
81619;SDS011;71028;53.410;6.710;2024-03-06T06:52:39;14.70;;;7.50;;
81619;SDS011;71028;53.410;6.710;2024-03-06T06:55:05;14.23;;;6.80;;
81619;SDS011;71028;53.410;6.710;2024-03-06T06:57:32;13.50;;;7.25;;
81619;SDS011;71028;53.410;6.710;2024-03-06T06:59:58;14.07;;;7.25;;
81619;SDS011;71028;53.410;6.710;2024-03-06T07:02:24;15.63;;;8.15;;
81619;SDS011;71028;53.410;6.710;2024-03-06T07:04:51;13.00;;;7.22;;
81619;SDS011;71028;53.410;6.710;2024-03-06T07:07:18;17.55;;;8.73;;
81619;SDS011;71028;53.410;6.710;2024-03-06T07:09:44;14.50;;;7.28;;
81619;SDS011;71028;53.410;6.710;2024-03-06T07:12:10;13.70;;;7.30;;
81619;SDS011;71028;53.410;6.710;2024-03-06T07:14:36;14.35;;;7.40;;
81619;SDS011;71028;53.410;6.710;2024-03-06T07:17:02;14.90;;;6.57;;
81619;SDS011;71028;53.410;6.710;2024-03-06T07:19:28;11.30;;;6.43;;
81619;SDS011;71028;53.410;6.710;2024-03-06T07:21:54;16.10;;;8.07;;
81619;SDS011;71028;53.410;6.710;2024-03-06T07:24:20;14.20;;;7.53;;
81619;SDS011;71028;53.410;6.710;2024-03-06T07:26:46;14.13;;;7.15;;
81619;SDS011;71028;53.410;6.710;2024-03-06T07:29:12;15.00;;;7.60;;
81619;SDS011;71028;53.410;6.710;2024-03-06T07:31:42;13.45;;;7.47;;
81619;SDS011;71028;53.410;6.710;2024-03-06T07:34:12;15.70;;;7.28;;
81619;SDS011;71028;53.410;6.710;2024-03-06T07:36:39;14.05;;;7.10;;
81619;SDS011;71028;53.410;6.710;2024-03-06T07:39:05;16.60;;;8.02;;
81619;SDS011;71028;53.410;6.710;2024-03-06T07:41:32;18.08;;;8.80;;
81619;SDS011;71028;53.410;6.710;2024-03-06T07:43:58;16.50;;;8.43;;
81619;SDS011;71028;53.410;6.710;2024-03-06T07:46:25;13.48;;;7.07;;
81619;SDS011;71028;53.410;6.710;2024-03-06T07:48:51;14.20;;;8.13;;
81619;SDS011;71028;53.410;6.710;2024-03-06T07:51:17;16.30;;;7.85;;
81619;SDS011;71028;53.410;6.710;2024-03-06T07:53:43;13.25;;;7.78;;
81619;SDS011;71028;53.410;6.710;2024-03-06T07:56:10;15.85;;;7.53;;
81619;SDS011;71028;53.410;6.710;2024-03-06T07:58:36;14.88;;;6.82;;
81619;SDS011;71028;53.410;6.710;2024-03-06T08:01:03;18.05;;;7.95;;
81619;SDS011;71028;53.410;6.710;2024-03-06T08:03:29;14.50;;;7.63;;
81619;SDS011;71028;53.410;6.710;2024-03-06T08:05:55;18.50;;;8.73;;
81619;SDS011;71028;53.410;6.710;2024-03-06T08:08:21;17.83;;;8.50;;
81619;SDS011;71028;53.410;6.710;2024-03-06T08:10:49;14.35;;;7.78;;
81619;SDS011;71028;53.410;6.710;2024-03-06T08:13:15;14.32;;;8.13;;
81619;SDS011;71028;53.410;6.710;2024-03-06T08:15:41;16.15;;;8.15;;
81619;SDS011;71028;53.410;6.710;2024-03-06T08:18:09;18.98;;;8.38;;
81619;SDS011;71028;53.410;6.710;2024-03-06T08:20:36;16.70;;;8.18;;
81619;SDS011;71028;53.410;6.710;2024-03-06T08:23:02;15.57;;;7.78;;
81619;SDS011;71028;53.410;6.710;2024-03-06T08:25:28;17.85;;;8.65;;
81619;SDS011;71028;53.410;6.710;2024-03-06T08:27:57;15.57;;;7.90;;
81619;SDS011;71028;53.410;6.710;2024-03-06T08:30:24;18.02;;;9.15;;
81619;SDS011;71028;53.410;6.710;2024-03-06T08:32:50;14.57;;;7.47;;
81619;SDS011;71028;53.410;6.710;2024-03-06T08:35:17;14.15;;;7.68;;
81619;SDS011;71028;53.410;6.710;2024-03-06T08:37:46;15.57;;;7.88;;
81619;SDS011;71028;53.410;6.710;2024-03-06T08:40:12;19.42;;;9.35;;
81619;SDS011;71028;53.410;6.710;2024-03-06T08:42:42;16.23;;;7.57;;
81619;SDS011;71028;53.410;6.710;2024-03-06T08:45:09;14.85;;;8.57;;
81619;SDS011;71028;53.410;6.710;2024-03-06T08:47:35;16.85;;;7.45;;
81619;SDS011;71028;53.410;6.710;2024-03-06T08:50:02;14.93;;;8.05;;
81619;SDS011;71028;53.410;6.710;2024-03-06T08:52:29;14.27;;;7.78;;
81619;SDS011;71028;53.410;6.710;2024-03-06T08:54:58;15.55;;;7.85;;
81619;SDS011;71028;53.410;6.710;2024-03-06T08:57:24;14.43;;;8.13;;
81619;SDS011;71028;53.410;6.710;2024-03-06T08:59:53;14.57;;;8.23;;
81619;SDS011;71028;53.410;6.710;2024-03-06T09:02:19;16.77;;;7.65;;
81619;SDS011;71028;53.410;6.710;2024-03-06T09:04:46;15.90;;;8.07;;
81619;SDS011;71028;53.410;6.710;2024-03-06T09:07:12;16.02;;;8.52;;
81619;SDS011;71028;53.410;6.710;2024-03-06T09:09:38;19.92;;;9.27;;
81619;SDS011;71028;53.410;6.710;2024-03-06T09:12:05;18.20;;;8.10;;
81619;SDS011;71028;53.410;6.710;2024-03-06T09:14:32;15.38;;;8.43;;
81619;SDS011;71028;53.410;6.710;2024-03-06T09:16:59;15.73;;;7.80;;
81619;SDS011;71028;53.410;6.710;2024-03-06T09:19:25;15.93;;;8.85;;
81619;SDS011;71028;53.410;6.710;2024-03-06T09:21:51;14.98;;;8.07;;
81619;SDS011;71028;53.410;6.710;2024-03-06T09:24:17;17.23;;;8.02;;
81619;SDS011;71028;53.410;6.710;2024-03-06T09:26:47;18.10;;;7.72;;
81619;SDS011;71028;53.410;6.710;2024-03-06T09:29:13;17.98;;;8.68;;
81619;SDS011;71028;53.410;6.710;2024-03-06T09:31:39;22.75;;;11.15;;
81619;SDS011;71028;53.410;6.710;2024-03-06T09:34:05;17.70;;;9.50;;
81619;SDS011;71028;53.410;6.710;2024-03-06T09:36:31;18.05;;;8.82;;
81619;SDS011;71028;53.410;6.710;2024-03-06T09:38:58;13.98;;;7.75;;
81619;SDS011;71028;53.410;6.710;2024-03-06T09:41:24;17.38;;;8.60;;
81619;SDS011;71028;53.410;6.710;2024-03-06T09:43:51;16.25;;;8.93;;
81619;SDS011;71028;53.410;6.710;2024-03-06T09:46:18;14.10;;;8.18;;
81619;SDS011;71028;53.410;6.710;2024-03-06T09:48:47;16.80;;;8.73;;
81619;SDS011;71028;53.410;6.710;2024-03-06T09:51:13;14.50;;;7.45;;
81619;SDS011;71028;53.410;6.710;2024-03-06T09:53:40;16.25;;;7.72;;
81619;SDS011;71028;53.410;6.710;2024-03-06T09:56:06;16.38;;;9.02;;
81619;SDS011;71028;53.410;6.710;2024-03-06T09:58:33;15.90;;;8.38;;
81619;SDS011;71028;53.410;6.710;2024-03-06T10:00:59;19.05;;;8.88;;
81619;SDS011;71028;53.410;6.710;2024-03-06T10:03:28;18.40;;;9.00;;
81619;SDS011;71028;53.410;6.710;2024-03-06T10:05:54;15.85;;;8.57;;
81619;SDS011;71028;53.410;6.710;2024-03-06T10:08:21;17.90;;;9.57;;
81619;SDS011;71028;53.410;6.710;2024-03-06T10:10:48;14.60;;;8.98;;
81619;SDS011;71028;53.410;6.710;2024-03-06T10:13:18;20.52;;;8.80;;
81619;SDS011;71028;53.410;6.710;2024-03-06T10:16:00;16.20;;;9.45;;
81619;SDS011;71028;53.410;6.710;2024-03-06T10:18:30;14.73;;;8.90;;
81619;SDS011;71028;53.410;6.710;2024-03-06T10:20:57;16.20;;;8.50;;
81619;SDS011;71028;53.410;6.710;2024-03-06T10:23:23;14.90;;;8.35;;
81619;SDS011;71028;53.410;6.710;2024-03-06T10:25:49;15.25;;;8.43;;
81619;SDS011;71028;53.410;6.710;2024-03-06T10:28:17;17.60;;;8.88;;
81619;SDS011;71028;53.410;6.710;2024-03-06T10:30:43;14.82;;;7.88;;
81619;SDS011;71028;53.410;6.710;2024-03-06T10:33:14;17.25;;;8.90;;
81619;SDS011;71028;53.410;6.710;2024-03-06T10:35:41;15.23;;;8.77;;
81619;SDS011;71028;53.410;6.710;2024-03-06T10:38:07;15.95;;;8.52;;
81619;SDS011;71028;53.410;6.710;2024-03-06T10:40:34;18.95;;;9.27;;
81619;SDS011;71028;53.410;6.710;2024-03-06T10:43:01;17.27;;;8.95;;
81619;SDS011;71028;53.410;6.710;2024-03-06T10:45:32;17.17;;;9.00;;
81619;SDS011;71028;53.410;6.710;2024-03-06T10:48:00;15.77;;;9.15;;
81619;SDS011;71028;53.410;6.710;2024-03-06T10:50:26;20.98;;;10.43;;
81619;SDS011;71028;53.410;6.710;2024-03-06T10:52:53;18.67;;;9.30;;
81619;SDS011;71028;53.410;6.710;2024-03-06T10:55:22;15.57;;;8.10;;
81619;SDS011;71028;53.410;6.710;2024-03-06T10:57:48;19.75;;;9.32;;
81619;SDS011;71028;53.410;6.710;2024-03-06T11:00:15;21.45;;;9.88;;
81619;SDS011;71028;53.410;6.710;2024-03-06T11:02:45;19.65;;;9.05;;
81619;SDS011;71028;53.410;6.710;2024-03-06T11:05:13;19.95;;;8.45;;
81619;SDS011;71028;53.410;6.710;2024-03-06T11:07:40;19.42;;;10.05;;
81619;SDS011;71028;53.410;6.710;2024-03-06T11:10:06;18.33;;;8.80;;
81619;SDS011;71028;53.410;6.710;2024-03-06T11:12:36;18.95;;;9.57;;
81619;SDS011;71028;53.410;6.710;2024-03-06T11:15:09;20.50;;;10.30;;
81619;SDS011;71028;53.410;6.710;2024-03-06T11:17:36;22.75;;;11.05;;
81619;SDS011;71028;53.410;6.710;2024-03-06T11:28:04;21.98;;;9.63;;
81619;SDS011;71028;53.410;6.710;2024-03-06T11:30:30;19.52;;;9.52;;
81619;SDS011;71028;53.410;6.710;2024-03-06T11:32:57;20.95;;;9.02;;
81619;SDS011;71028;53.410;6.710;2024-03-06T11:35:29;18.10;;;9.20;;
81619;SDS011;71028;53.410;6.710;2024-03-06T11:37:56;19.75;;;10.50;;
81619;SDS011;71028;53.410;6.710;2024-03-06T11:40:25;22.13;;;9.63;;
81619;SDS011;71028;53.410;6.710;2024-03-06T11:42:52;22.70;;;10.20;;
81619;SDS011;71028;53.410;6.710;2024-03-06T11:45:18;19.80;;;10.10;;
81619;SDS011;71028;53.410;6.710;2024-03-06T11:48:23;21.48;;;10.40;;
81619;SDS011;71028;53.410;6.710;2024-03-06T11:50:42;19.50;;;11.45;;
81619;SDS011;71028;53.410;6.710;2024-03-06T11:53:08;23.05;;;10.65;;
81619;SDS011;71028;53.410;6.710;2024-03-06T11:55:34;20.83;;;10.35;;
81619;SDS011;71028;53.410;6.710;2024-03-06T11:58:00;24.45;;;11.15;;
81619;SDS011;71028;53.410;6.710;2024-03-06T12:00:29;25.98;;;11.02;;
81619;SDS011;71028;53.410;6.710;2024-03-06T12:02:55;26.20;;;12.18;;
81619;SDS011;71028;53.410;6.710;2024-03-06T12:05:25;23.05;;;11.45;;
81619;SDS011;71028;53.410;6.710;2024-03-06T12:07:52;23.10;;;10.63;;
81619;SDS011;71028;53.410;6.710;2024-03-06T12:10:19;25.15;;;11.43;;
81619;SDS011;71028;53.410;6.710;2024-03-06T12:12:45;22.30;;;10.23;;
81619;SDS011;71028;53.410;6.710;2024-03-06T12:15:12;20.75;;;9.45;;
81619;SDS011;71028;53.410;6.710;2024-03-06T12:17:45;20.35;;;9.60;;
81619;SDS011;71028;53.410;6.710;2024-03-06T12:20:12;22.98;;;11.30;;
81619;SDS011;71028;53.410;6.710;2024-03-06T12:22:54;21.85;;;10.20;;
81619;SDS011;71028;53.410;6.710;2024-03-06T12:25:24;23.58;;;11.68;;
81619;SDS011;71028;53.410;6.710;2024-03-06T12:27:51;19.23;;;10.48;;
81619;SDS011;71028;53.410;6.710;2024-03-06T12:30:18;24.15;;;11.20;;
81619;SDS011;71028;53.410;6.710;2024-03-06T12:32:55;26.00;;;11.27;;
81619;SDS011;71028;53.410;6.710;2024-03-06T12:35:27;26.88;;;12.80;;
81619;SDS011;71028;53.410;6.710;2024-03-06T12:37:53;25.33;;;10.15;;
81619;SDS011;71028;53.410;6.710;2024-03-06T12:40:20;25.38;;;11.57;;
81619;SDS011;71028;53.410;6.710;2024-03-06T12:42:46;21.75;;;11.65;;
81619;SDS011;71028;53.410;6.710;2024-03-06T12:45:12;21.17;;;12.05;;
81619;SDS011;71028;53.410;6.710;2024-03-06T12:47:42;21.02;;;10.00;;
81619;SDS011;71028;53.410;6.710;2024-03-06T12:50:09;22.30;;;11.18;;
81619;SDS011;71028;53.410;6.710;2024-03-06T12:52:36;24.95;;;11.70;;
81619;SDS011;71028;53.410;6.710;2024-03-06T12:55:02;19.60;;;10.18;;
81619;SDS011;71028;53.410;6.710;2024-03-06T12:57:30;26.73;;;11.98;;
81619;SDS011;71028;53.410;6.710;2024-03-06T12:59:56;22.52;;;11.75;;
81619;SDS011;71028;53.410;6.710;2024-03-06T13:02:22;27.00;;;13.95;;
81619;SDS011;71028;53.410;6.710;2024-03-06T13:04:48;27.10;;;12.15;;
81619;SDS011;71028;53.410;6.710;2024-03-06T13:07:14;24.42;;;12.18;;
81619;SDS011;71028;53.410;6.710;2024-03-06T13:09:40;24.33;;;12.38;;
81619;SDS011;71028;53.410;6.710;2024-03-06T13:12:06;22.60;;;11.80;;
81619;SDS011;71028;53.410;6.710;2024-03-06T13:14:33;24.08;;;11.77;;
81619;SDS011;71028;53.410;6.710;2024-03-06T13:16:59;26.00;;;13.18;;
81619;SDS011;71028;53.410;6.710;2024-03-06T13:19:26;23.13;;;12.40;;
81619;SDS011;71028;53.410;6.710;2024-03-06T13:21:52;29.30;;;13.32;;
81619;SDS011;71028;53.410;6.710;2024-03-06T13:24:18;22.77;;;11.27;;
81619;SDS011;71028;53.410;6.710;2024-03-06T13:26:44;21.17;;;11.40;;
81619;SDS011;71028;53.410;6.710;2024-03-06T13:29:10;21.65;;;10.68;;
81619;SDS011;71028;53.410;6.710;2024-03-06T13:31:36;26.73;;;11.68;;
81619;SDS011;71028;53.410;6.710;2024-03-06T13:34:03;21.70;;;11.80;;
81619;SDS011;71028;53.410;6.710;2024-03-06T13:36:29;24.98;;;11.68;;
81619;SDS011;71028;53.410;6.710;2024-03-06T13:38:55;23.50;;;11.93;;
81619;SDS011;71028;53.410;6.710;2024-03-06T13:41:22;26.80;;;12.95;;
81619;SDS011;71028;53.410;6.710;2024-03-06T13:43:48;27.08;;;12.63;;
81619;SDS011;71028;53.410;6.710;2024-03-06T13:46:14;24.35;;;12.73;;
81619;SDS011;71028;53.410;6.710;2024-03-06T13:48:40;24.13;;;13.07;;
81619;SDS011;71028;53.410;6.710;2024-03-06T13:51:06;22.67;;;13.18;;
81619;SDS011;71028;53.410;6.710;2024-03-06T13:53:33;23.77;;;12.25;;
81619;SDS011;71028;53.410;6.710;2024-03-06T13:55:59;25.77;;;12.85;;
81619;SDS011;71028;53.410;6.710;2024-03-06T13:58:25;25.02;;;13.73;;
81619;SDS011;71028;53.410;6.710;2024-03-06T14:00:51;25.08;;;12.02;;
81619;SDS011;71028;53.410;6.710;2024-03-06T14:03:17;24.33;;;12.32;;
81619;SDS011;71028;53.410;6.710;2024-03-06T14:05:43;28.30;;;14.38;;
81619;SDS011;71028;53.410;6.710;2024-03-06T14:08:09;25.77;;;12.43;;
81619;SDS011;71028;53.410;6.710;2024-03-06T14:10:38;27.08;;;13.02;;
81619;SDS011;71028;53.410;6.710;2024-03-06T14:13:04;26.20;;;12.82;;
81619;SDS011;71028;53.410;6.710;2024-03-06T14:15:31;30.35;;;13.48;;
81619;SDS011;71028;53.410;6.710;2024-03-06T14:17:57;27.65;;;14.25;;
81619;SDS011;71028;53.410;6.710;2024-03-06T14:20:23;23.58;;;12.43;;
81619;SDS011;71028;53.410;6.710;2024-03-06T14:22:50;27.77;;;12.98;;
81619;SDS011;71028;53.410;6.710;2024-03-06T14:25:16;22.42;;;12.05;;
81619;SDS011;71028;53.410;6.710;2024-03-06T14:27:42;24.90;;;11.80;;
81619;SDS011;71028;53.410;6.710;2024-03-06T14:30:09;27.55;;;13.35;;
81619;SDS011;71028;53.410;6.710;2024-03-06T14:32:40;26.15;;;11.70;;
81619;SDS011;71028;53.410;6.710;2024-03-06T14:35:06;25.33;;;11.88;;
81619;SDS011;71028;53.410;6.710;2024-03-06T14:37:32;23.30;;;12.65;;